Stilwell, Oklahoma
Current Conditions -  °F | °C
As of 6:15 PM on Wednesday 28 Jan 2015 (Local Time) from KTQH Reporting Station
Clear Clear  
Wind Chill: 66°   Ceiling: Unl
Heat Index: 66°   Visibility: 10mi
Dew Point: 41°   Wind: 9mph
Humidity: 40%   Direction: 170°S
Pressure: 29.91"   Gusts: NA
Location:  35.81°N, 94.63°W
Report Text: KTQH 290015Z AUTO 17008KT 10SM CLR 19/05 A2991 RMK AO2
Loading
Personal Weather Stations






























Interactive Weather Map New forecast layout! Learn more

10-Day Weather Forecast

Advertisements
Track Severe Weather on mobile